createdAt,value
2024-02-02T00:00:44.258Z,16.20
2024-02-02T00:05:56.914Z,14.10
2024-02-02T00:08:23.760Z,15.40
2024-02-02T00:10:50.624Z,20.60
2024-02-02T00:13:17.412Z,17.90
2024-02-02T00:15:44.264Z,16.30
2024-02-02T00:18:11.207Z,23.40
2024-02-02T00:20:38.351Z,20.40
2024-02-02T00:23:05.389Z,19.80
2024-02-02T00:25:32.421Z,15.10
2024-02-02T00:27:59.333Z,16.70
2024-02-02T00:30:26.225Z,19.00
2024-02-02T00:32:53.353Z,15.80
2024-02-02T00:35:20.722Z,21.10
2024-02-02T00:37:48.286Z,16.60
2024-02-02T00:40:17.669Z,14.00
2024-02-02T00:42:46.024Z,16.20
2024-02-02T00:45:13.724Z,16.20
2024-02-02T00:47:41.313Z,18.70
2024-02-02T00:50:12.078Z,15.40
2024-02-02T00:52:38.921Z,16.80
2024-02-02T00:55:06.222Z,14.10
2024-02-02T00:57:33.219Z,21.10
2024-02-02T01:00:00.241Z,19.30
2024-02-02T01:02:28.407Z,11.00
2024-02-02T01:04:55.121Z,18.00
2024-02-02T06:56:40.879Z,28.10
2024-02-02T06:59:08.159Z,22.70
2024-02-02T07:01:35.807Z,22.70
2024-02-02T07:04:05.405Z,23.90
2024-02-02T07:06:34.020Z,19.60
2024-02-02T07:09:08.045Z,21.70
2024-02-02T07:12:00.842Z,21.30
2024-02-02T07:14:46.555Z,22.70
2024-02-02T07:17:27.774Z,24.60
2024-02-02T07:19:58.110Z,25.10
2024-02-02T07:22:37.779Z,26.90
2024-02-02T07:25:05.762Z,25.60
2024-02-02T07:27:55.334Z,25.50
2024-02-02T07:30:49.053Z,21.30
2024-02-02T07:33:23.506Z,22.60
2024-02-02T07:35:50.679Z,23.50
2024-02-02T07:38:47.500Z,23.10
2024-02-02T07:41:16.593Z,23.40
2024-02-02T07:43:43.867Z,20.90
2024-02-02T07:46:13.277Z,18.50
2024-02-02T07:48:43.756Z,24.90
2024-02-02T07:51:12.734Z,20.40
2024-02-02T07:53:39.955Z,21.40
2024-02-02T07:56:07.501Z,18.50
2024-02-02T07:58:34.308Z,17.50
2024-02-02T08:01:01.452Z,16.70
2024-02-02T08:03:28.755Z,22.40
2024-02-02T08:05:56.401Z,20.10
2024-02-02T08:08:23.334Z,16.90
2024-02-02T08:10:50.810Z,19.60
2024-02-02T08:13:20.001Z,15.80
2024-02-02T08:15:49.591Z,21.70
2024-02-02T08:18:16.584Z,17.40
2024-02-02T08:20:43.568Z,19.60
2024-02-02T08:23:10.864Z,20.30
2024-02-02T08:25:37.814Z,17.30
2024-02-02T08:28:05.453Z,17.70
2024-02-02T08:30:32.877Z,18.50
2024-02-02T08:33:00.302Z,20.40
2024-02-02T08:35:29.683Z,14.60
2024-02-02T08:37:59.726Z,18.20
2024-02-02T08:40:41.746Z,17.20
2024-02-02T08:43:12.925Z,20.20
2024-02-02T08:46:14.716Z,19.90
2024-02-02T08:48:45.894Z,22.10
2024-02-02T08:51:50.697Z,13.50
2024-02-02T08:54:39.538Z,36.10
2024-02-02T08:57:35.230Z,17.60
2024-02-02T09:00:12.838Z,16.70
2024-02-02T09:03:20.118Z,17.50
2024-02-02T09:05:58.696Z,15.30
2024-02-02T09:08:36.150Z,17.60
2024-02-02T09:11:20.286Z,18.30
2024-02-02T09:13:47.643Z,17.20
2024-02-02T09:16:16.308Z,17.70
2024-02-02T09:18:45.815Z,19.70
2024-02-02T09:21:14.932Z,15.70
2024-02-02T09:23:47.017Z,18.70
2024-02-02T09:26:15.469Z,13.40
2024-02-02T09:28:47.173Z,19.60
2024-02-02T09:31:22.664Z,20.70
2024-02-02T09:33:52.344Z,19.10
2024-02-02T09:36:22.475Z,16.10
2024-02-02T09:39:05.583Z,20.10
2024-02-02T09:42:08.670Z,20.20
2024-02-02T09:44:54.118Z,19.20
2024-02-02T09:47:44.824Z,19.50
2024-02-02T09:50:27.263Z,19.30
2024-02-02T09:53:24.853Z,20.70
2024-02-02T09:55:59.156Z,20.60
2024-02-02T09:58:30.116Z,20.10
2024-02-02T10:01:07.599Z,21.30
2024-02-02T10:03:47.979Z,23.10
2024-02-02T10:06:31.554Z,21.10
2024-02-02T10:09:17.442Z,20.20
2024-02-02T10:11:58.571Z,25.80
2024-02-02T10:14:47.611Z,21.40
2024-02-02T10:17:27.753Z,25.50
2024-02-02T10:20:12.920Z,21.00
2024-02-02T10:23:05.697Z,27.60
2024-02-02T10:25:51.379Z,21.50
2024-02-02T10:28:35.960Z,22.50
2024-02-02T10:31:15.605Z,27.60
2024-02-02T10:33:54.425Z,24.20
2024-02-02T10:36:35.046Z,25.70
2024-02-02T10:39:18.144Z,27.00
2024-02-02T10:42:01.806Z,30.40
2024-02-02T10:44:45.367Z,23.90
2024-02-02T10:47:32.409Z,31.90
2024-02-02T10:50:09.287Z,30.00
2024-02-02T10:55:22.308Z,24.70
2024-02-02T10:57:58.018Z,30.30
2024-02-02T11:00:30.703Z,22.50
2024-02-02T11:03:15.039Z,27.60
2024-02-02T11:05:49.985Z,28.40
2024-02-02T11:08:21.304Z,27.30
2024-02-02T11:10:59.028Z,22.90
2024-02-02T11:13:32.862Z,25.80
2024-02-02T11:16:08.160Z,26.10
2024-02-02T11:18:49.441Z,31.50
2024-02-02T11:21:33.710Z,26.30
2024-02-02T11:24:11.511Z,26.20
2024-02-02T11:26:44.602Z,24.80
2024-02-02T11:29:17.183Z,28.00
2024-02-02T11:31:52.769Z,30.60
2024-02-02T11:34:27.015Z,27.20
2024-02-02T11:37:07.459Z,26.00
2024-02-02T11:39:47.455Z,23.60
2024-02-02T11:42:16.152Z,24.30
2024-02-02T11:44:44.852Z,20.80
2024-02-02T11:47:11.792Z,28.90
2024-02-02T11:49:43.141Z,26.20
2024-02-02T11:52:23.545Z,24.00
2024-02-02T11:54:59.079Z,23.70
2024-02-02T11:57:31.207Z,25.60
2024-02-02T12:00:00.544Z,28.70
2024-02-02T12:02:49.094Z,23.50
2024-02-02T12:05:20.492Z,33.30
2024-02-02T12:07:59.364Z,25.70
2024-02-02T12:10:29.993Z,28.10
2024-02-02T12:13:01.380Z,26.60
2024-02-02T12:15:28.435Z,28.90
2024-02-02T12:17:55.873Z,22.00
2024-02-02T12:20:23.479Z,27.30
2024-02-02T12:22:51.259Z,27.60
2024-02-02T12:25:20.547Z,28.20
2024-02-02T12:27:47.931Z,28.50
2024-02-02T12:30:18.134Z,29.70
2024-02-02T12:32:55.674Z,21.50
2024-02-02T12:35:24.576Z,24.70
2024-02-02T12:37:52.364Z,27.10
2024-02-02T12:40:21.422Z,24.40
2024-02-02T12:42:48.769Z,25.80
2024-02-02T12:45:17.000Z,28.10
2024-02-02T12:47:45.446Z,22.90
2024-02-02T12:50:17.490Z,20.60
2024-02-02T12:52:44.971Z,18.20
2024-02-02T12:55:13.518Z,20.80
2024-02-02T12:57:46.064Z,20.70
2024-02-02T13:00:17.983Z,28.10
2024-02-02T13:02:47.171Z,21.10
2024-02-02T13:05:18.429Z,26.30
2024-02-02T13:07:46.607Z,28.90
2024-02-02T13:10:14.735Z,25.20
2024-02-02T13:12:48.025Z,24.70
2024-02-02T13:15:19.456Z,21.30
2024-02-02T13:18:01.087Z,24.40
2024-02-02T13:20:35.066Z,21.50
2024-02-02T13:23:11.543Z,28.70
2024-02-02T13:25:42.383Z,25.80
2024-02-02T13:28:17.359Z,19.60
2024-02-02T13:30:53.542Z,31.90
2024-02-02T13:33:24.299Z,28.10
2024-02-02T13:35:56.137Z,25.30
2024-02-02T13:38:24.153Z,27.10
2024-02-02T13:40:54.948Z,30.80
2024-02-02T13:43:22.419Z,23.20
2024-02-02T13:45:49.530Z,28.80
2024-02-02T13:48:18.064Z,23.90
2024-02-02T13:50:53.199Z,26.90
2024-02-02T13:53:22.923Z,25.50
2024-02-02T13:55:50.106Z,24.00
2024-02-02T13:58:16.943Z,26.90
2024-02-02T14:00:43.882Z,22.70
2024-02-02T14:03:12.665Z,25.60
2024-02-02T14:05:40.937Z,26.20
2024-02-02T14:08:08.724Z,29.40
2024-02-02T14:10:45.659Z,25.40
2024-02-02T14:13:20.432Z,22.80
2024-02-02T14:15:51.308Z,31.20
2024-02-02T14:18:21.664Z,27.30
2024-02-02T14:20:48.940Z,22.40
2024-02-02T14:23:16.809Z,24.90
2024-02-02T14:25:44.512Z,29.80
2024-02-02T14:28:18.851Z,30.50
2024-02-02T14:30:46.044Z,25.20
2024-02-02T14:33:21.989Z,21.70
2024-02-02T14:35:52.843Z,28.30
2024-02-02T14:38:19.764Z,27.80
2024-02-02T14:40:49.497Z,26.10
2024-02-02T14:43:16.459Z,34.00
2024-02-02T14:45:43.422Z,29.50
2024-02-02T14:48:12.300Z,29.10
2024-02-02T14:50:40.095Z,25.60
2024-02-02T14:53:07.574Z,24.20
2024-02-02T14:55:34.500Z,26.70
2024-02-02T14:58:02.246Z,23.00
2024-02-02T15:00:32.360Z,25.00
2024-02-02T15:03:00.943Z,31.70
2024-02-02T15:05:28.228Z,27.00
2024-02-02T15:07:55.894Z,24.70
2024-02-02T15:10:23.092Z,29.60
2024-02-02T15:12:50.315Z,25.80
2024-02-02T15:15:17.515Z,21.60
2024-02-02T15:17:44.363Z,27.10
2024-02-02T15:20:12.607Z,26.30
2024-02-02T15:22:39.794Z,26.90
2024-02-02T15:25:09.462Z,21.70
2024-02-02T15:27:38.945Z,25.10
2024-02-02T15:30:07.902Z,25.50
2024-02-02T15:32:34.833Z,29.60
2024-02-02T15:35:01.877Z,23.00
2024-02-02T15:37:28.864Z,25.40
2024-02-02T15:39:58.784Z,27.70
2024-02-02T15:42:27.677Z,28.30
2024-02-02T15:44:55.693Z,29.00
2024-02-02T15:47:22.737Z,30.50
2024-02-02T15:49:50.331Z,24.30
2024-02-02T15:52:17.486Z,29.10
2024-02-02T15:54:44.985Z,28.60
2024-02-02T15:57:13.395Z,26.60
2024-02-02T15:59:41.565Z,24.40
2024-02-02T16:02:10.369Z,24.50
2024-02-02T16:04:37.623Z,23.70
2024-02-02T16:07:07.077Z,21.70
2024-02-02T16:09:39.469Z,22.50
2024-02-02T16:12:07.437Z,28.30
2024-02-02T16:14:34.368Z,32.20
2024-02-02T16:17:01.611Z,26.60
2024-02-02T16:19:28.571Z,31.20
2024-02-02T16:21:55.771Z,25.80
2024-02-02T16:24:22.656Z,26.50
2024-02-02T16:26:49.462Z,27.30
2024-02-02T16:29:16.893Z,28.60
2024-02-02T16:31:46.545Z,30.60
2024-02-02T16:34:14.282Z,28.40
2024-02-02T16:36:45.964Z,32.60
2024-02-02T16:39:14.972Z,36.10
2024-02-02T16:41:42.071Z,31.70
2024-02-02T16:44:09.287Z,29.70
2024-02-02T16:46:36.217Z,30.60
2024-02-02T16:49:03.322Z,31.70
2024-02-02T16:51:30.232Z,32.50
2024-02-02T16:53:57.185Z,33.30
2024-02-02T16:56:24.966Z,32.90
2024-02-02T16:58:51.875Z,28.90
2024-02-02T17:01:28.073Z,31.30
2024-02-02T17:03:54.997Z,28.90
2024-02-02T17:06:21.989Z,27.10
2024-02-02T17:08:48.954Z,30.60
2024-02-02T17:11:15.963Z,26.70
2024-02-02T17:13:42.908Z,25.60
2024-02-02T17:16:10.205Z,26.30
2024-02-02T17:18:41.791Z,25.60
2024-02-02T17:21:09.802Z,22.50
2024-02-02T17:23:36.887Z,24.10
2024-02-02T17:26:03.788Z,24.80
2024-02-02T17:28:31.158Z,22.80
2024-02-02T17:30:57.958Z,24.30
2024-02-02T17:33:24.922Z,23.80
2024-02-02T17:35:51.990Z,22.70
2024-02-02T17:38:18.930Z,24.20
2024-02-02T17:40:47.474Z,25.60
2024-02-02T17:43:14.597Z,27.90
2024-02-02T17:45:42.113Z,28.90
2024-02-02T17:48:10.076Z,26.30
2024-02-02T17:50:37.278Z,23.20
2024-02-02T17:53:04.249Z,25.20
2024-02-02T17:55:31.550Z,26.90
2024-02-02T17:57:58.487Z,28.50
2024-02-02T18:00:26.005Z,30.80
2024-02-02T18:02:53.081Z,27.50
2024-02-02T18:05:20.012Z,26.50
2024-02-02T18:07:52.249Z,27.30
2024-02-02T18:10:47.939Z,28.60
2024-02-02T18:13:20.607Z,28.60
2024-02-02T18:15:50.303Z,27.20
2024-02-02T18:18:29.597Z,25.10
2024-02-02T18:20:56.793Z,27.70
2024-02-02T18:23:25.766Z,26.70
2024-02-02T18:25:52.696Z,32.20
2024-02-02T18:28:24.669Z,27.10
2024-02-02T18:30:56.366Z,32.30
2024-02-02T18:33:24.320Z,31.30
2024-02-02T18:36:01.648Z,27.40
2024-02-02T18:38:30.021Z,33.40
2024-02-02T18:40:56.838Z,29.70
2024-02-02T18:43:27.708Z,29.40
2024-02-02T18:45:54.618Z,30.90
2024-02-02T18:48:24.930Z,26.50
2024-02-02T18:50:53.021Z,27.90
2024-02-02T18:53:19.947Z,28.60
2024-02-02T18:55:50.083Z,23.10
2024-02-02T18:58:17.173Z,30.40
2024-02-02T19:00:44.156Z,28.70
2024-02-02T19:03:13.189Z,27.50
2024-02-02T19:05:40.538Z,26.70
2024-02-02T19:08:08.687Z,26.80
2024-02-02T19:10:35.524Z,31.40
2024-02-02T19:13:02.499Z,32.90
2024-02-02T19:15:29.432Z,28.10
2024-02-02T19:17:56.440Z,30.40
2024-02-02T19:20:23.368Z,26.10
2024-02-02T19:22:52.484Z,30.70
2024-02-02T19:25:19.419Z,29.50
2024-02-02T19:27:46.354Z,34.70
2024-02-02T19:30:15.370Z,31.80
2024-02-02T19:32:42.453Z,26.70
2024-02-02T19:35:10.456Z,28.30
2024-02-02T19:37:37.333Z,30.20
2024-02-02T19:40:04.875Z,26.80
2024-02-02T19:42:31.735Z,25.70
2024-02-02T19:44:58.638Z,29.30
2024-02-02T19:47:25.452Z,28.80
2024-02-02T19:49:52.813Z,27.70
2024-02-02T19:52:19.857Z,27.90
2024-02-02T19:54:47.035Z,32.10
2024-02-02T19:57:13.976Z,27.00
2024-02-02T19:59:41.046Z,27.70
2024-02-02T20:02:11.317Z,28.20
2024-02-02T20:04:38.153Z,27.00
2024-02-02T20:07:05.573Z,28.70
2024-02-02T20:09:32.562Z,28.50
2024-02-02T20:11:59.464Z,30.70
2024-02-02T20:14:26.252Z,30.00
2024-02-02T20:16:53.106Z,25.80
2024-02-02T20:19:20.397Z,29.00
2024-02-02T20:21:48.684Z,27.90
2024-02-02T20:24:15.630Z,29.60
2024-02-02T20:26:42.628Z,33.20
2024-02-02T20:29:09.819Z,27.00
2024-02-02T20:31:37.174Z,28.40
2024-02-02T20:34:04.240Z,33.20
2024-02-02T20:36:32.346Z,27.60
2024-02-02T20:38:59.238Z,32.20
2024-02-02T20:41:27.188Z,31.30
2024-02-02T20:43:55.098Z,35.60
2024-02-02T20:46:22.135Z,29.80
2024-02-02T20:48:50.410Z,36.80
2024-02-02T20:51:17.676Z,34.70
2024-02-02T20:53:44.724Z,35.40
2024-02-02T20:56:11.659Z,32.20
2024-02-02T20:58:38.522Z,33.50
2024-02-02T21:01:05.599Z,35.30
2024-02-02T21:03:32.725Z,29.20
2024-02-02T21:06:00.586Z,32.00
2024-02-02T21:08:27.677Z,34.10
2024-02-02T21:10:54.571Z,32.30
2024-02-02T21:13:21.864Z,31.30
2024-02-02T21:15:50.372Z,34.30
2024-02-02T21:18:17.917Z,29.60
2024-02-02T21:20:46.975Z,29.60
2024-02-02T21:23:14.201Z,30.70
2024-02-02T21:25:42.851Z,35.90
2024-02-02T21:28:10.065Z,30.00
2024-02-02T21:30:36.928Z,30.70
2024-02-02T21:33:04.124Z,34.60
2024-02-02T21:35:31.027Z,29.20
2024-02-02T21:37:58.149Z,26.30
2024-02-02T21:40:25.120Z,24.90
2024-02-02T21:42:55.425Z,26.60
2024-02-02T21:45:22.807Z,29.20
2024-02-02T21:47:49.911Z,22.60
2024-02-02T21:50:17.368Z,25.20
2024-02-02T21:52:44.917Z,26.30
2024-02-02T21:55:12.223Z,21.40
2024-02-02T21:57:39.387Z,21.80
2024-02-02T22:00:08.471Z,22.70
2024-02-02T22:02:35.456Z,25.70
2024-02-02T22:05:02.760Z,23.50
2024-02-02T22:07:29.961Z,23.00
2024-02-02T22:09:57.502Z,23.70
2024-02-02T22:12:24.405Z,24.80
2024-02-02T22:14:51.252Z,26.70
2024-02-02T22:17:19.383Z,25.90
2024-02-02T22:19:46.732Z,24.80
2024-02-02T22:22:13.654Z,23.40
2024-02-02T22:24:43.051Z,26.50
2024-02-02T22:27:11.064Z,29.90
2024-02-02T22:29:38.047Z,25.90
2024-02-02T22:32:05.703Z,28.60
2024-02-02T22:34:32.719Z,27.10
2024-02-02T22:36:59.550Z,28.80
2024-02-02T22:39:26.397Z,25.50
2024-02-02T22:41:53.911Z,24.90
2024-02-02T22:44:22.175Z,26.90
2024-02-02T22:46:49.029Z,26.80
2024-02-02T22:49:16.447Z,28.90
2024-02-02T22:51:50.624Z,26.20
2024-02-02T22:54:18.677Z,27.60
2024-02-02T22:56:45.905Z,24.70
2024-02-02T22:59:12.822Z,27.20
2024-02-02T23:01:40.834Z,26.40
2024-02-02T23:04:11.335Z,26.10
2024-02-02T23:06:38.440Z,23.20
2024-02-02T23:09:05.436Z,29.60
2024-02-02T23:11:32.221Z,25.80
2024-02-02T23:13:59.282Z,27.00
2024-02-02T23:16:26.725Z,25.70
2024-02-02T23:18:54.024Z,29.60
2024-02-02T23:21:21.912Z,26.00
2024-02-02T23:23:48.953Z,25.40
2024-02-02T23:26:16.268Z,26.60
2024-02-02T23:28:43.230Z,25.10
2024-02-02T23:31:10.118Z,28.20
2024-02-02T23:33:37.060Z,26.00
2024-02-02T23:36:04.084Z,21.40
2024-02-02T23:38:30.905Z,26.90
2024-02-02T23:40:57.983Z,27.90
2024-02-02T23:43:25.333Z,24.60
2024-02-02T23:45:52.276Z,24.30
2024-02-02T23:48:19.337Z,24.10
2024-02-02T23:50:46.397Z,26.40
2024-02-02T23:53:13.464Z,30.50
2024-02-02T23:55:40.347Z,25.90
2024-02-02T23:58:07.702Z,28.00
